Accueil
METAR-TAF:

METAR-TAF

Aéroports :

St. Charles County Airport (Smart Field)

Saint Charles, Missouri, États-Unis

latitude: 38-55-50N, longitude: 090-25-57W, altitude: 133 m

Observation

Le bulletin a été fait il y a 1 heure et 2 minutes, à 10:54 UTC
Vent 4 kt de ouest/sud-ouest
Température 8°C
Humidité 71%
Pression 1018 hPa
Visibilité: 16.1 km
Ciel clair

METAR: KSET 011054Z AUTO 25004KT 10SM CLR 08/03 A3005 RMK AO2 SLP174 T00780033

Heure: 06:56 (11:56 UTC)


TAF: absent

Observations et prévisions météorologiques de plus de 4000 aéroports (messages METAR et TAF).

Les stations disponibles sont représentées par des disques jaunes et rouges sur la carte.

Passer la souris dessus pour voir le nom de la station.

Cliquer dessus pour voir les observations et prévisions météorologiques.

Pour changer de carte: cliquez sur les boutons verts avec une croix noire pour zoomer, sur le bouton vert avec un tiret pour effectuer un zoom arrière, ou sur les flèches vertes pour les cartes adjacentes.


METAR-TAF: